Flight Track Log - Related Links

Times and Time Zones

All times are in EDT time to prevent confusion due to time zone crossing. See the CSN3614 flight status page for this flight to view local times or setup timezone preferences in your user account.

Time Position Orientation Groundspeed Altitude Reporting Facility
EDT Latitude Longitude Course Direction KTS MPH feet Rate Location/Type
Sat 06:34:00 AM 43.6814 128.9727 207° Southwest  Level Estimated
Sat 06:35:00 AM 43.5876 128.9075 207° Southwest  Level Estimated
Sat 06:36:00 AM 43.4937 128.8425 207° Southwest  Level Estimated
Sat 06:37:00 AM 43.3998 128.7777 207° Southwest  Level Estimated
Sat 06:38:00 AM 43.3059 128.7131 207° Southwest  Level Estimated
Sat 06:39:00 AM 43.2119 128.6487 207° Southwest  Level Estimated
Sat 06:40:00 AM 43.1179 128.5845 207° Southwest  Level Estimated
Sat 06:41:00 AM 43.0238 128.5205 206° Southwest  Level Estimated
Sat 06:42:00 AM 42.9298 128.4567 206° Southwest  Level Estimated
Sat 06:43:00 AM 42.8357 128.3931 206° Southwest  Level Estimated
Sat 06:44:00 AM 42.7415 128.3296 206° Southwest  Level Estimated
Sat 06:45:00 AM 42.6473 128.2664 206° Southwest  Level Estimated
Sat 06:46:00 AM 42.5531 128.2034 206° Southwest  Level Estimated
Sat 06:47:00 AM 42.4589 128.1405 206° Southwest  Level Estimated
Sat 06:48:00 AM 42.3646 128.0779 206° Southwest  Level Estimated
Sat 06:49:00 AM 42.2702 128.0154 206° Southwest  Level Estimated
Sat 06:50:00 AM 42.1759 127.9531 206° Southwest  Level Estimated
Sat 06:51:00 AM 42.0815 127.8910 206° Southwest  Level Estimated
Sat 06:52:00 AM 41.9871 127.8291 206° Southwest  Level Estimated
Sat 06:53:00 AM 41.8926 127.7673 206° Southwest  Level Estimated
Sat 06:54:00 AM 41.7981 127.7058 206° Southwest  Level Estimated
Sat 06:55:00 AM 41.7036 127.6444 206° Southwest  Level Estimated
Sat 06:56:00 AM 41.6091 127.5832 206° Southwest  Level Estimated
Sat 06:57:00 AM 41.5145 127.5222 206° Southwest  Level Estimated
Sat 06:58:00 AM 41.4199 127.4614 206° Southwest  Level Estimated
Sat 06:59:00 AM 41.3252 127.4007 206° Southwest  Level Estimated
Sat 07:00:00 AM 41.2305 127.3402 206° Southwest  Level Estimated
Sat 07:01:00 AM 41.1358 127.2799 206° Southwest  Level Estimated
Sat 07:02:00 AM 41.0411 127.2198 206° Southwest  Level Estimated
Sat 07:03:00 AM 40.9463 127.1598 206° Southwest  Level Estimated
Sat 07:04:00 AM 40.8515 127.1001 206° Southwest  Level Estimated
Sat 07:05:00 AM 40.7567 127.0404 205° Southwest  Level Estimated
Sat 07:06:00 AM 40.6618 126.9810 205° Southwest  Level Estimated
Sat 07:07:00 AM 40.5669 126.9217 205° Southwest  Level Estimated
Sat 07:08:00 AM 40.4720 126.8626 205° Southwest  Level Estimated
Sat 07:09:00 AM 40.3770 126.8036 205° Southwest  Level Estimated
Sat 07:10:00 AM 40.2820 126.7449 205° Southwest  Level Estimated
Sat 07:11:00 AM 40.1870 126.6863 205° Southwest  Level Estimated
Sat 07:12:00 AM 40.0920 126.6278 205° Southwest  Level Estimated
Sat 07:13:00 AM 39.9969 126.5695 205° Southwest  Level Estimated
Sat 07:14:00 AM 39.9018 126.5114 205° Southwest  Level Estimated
Sat 07:15:00 AM 39.8066 126.4535 205° Southwest  Level Estimated
Sat 07:16:00 AM 39.7115 126.3957 205° Southwest  Level Estimated
Sat 07:17:00 AM 39.6163 126.3380 205° Southwest  Level Estimated
Sat 07:18:00 AM 39.5303 126.2861 205° Southwest  Level Estimated
Sat 07:19:00 AM 39.4443 126.2343 205° Southwest  Level Estimated
Sat 07:20:00 AM 39.3582 126.1826 205° Southwest  Level Estimated
Sat 07:21:00 AM 39.2721 126.1311 205° Southwest  Level Estimated
Sat 07:22:00 AM 39.1861 126.0797 205° Southwest  Level Estimated
Sat 07:23:00 AM 39.0999 126.0284 205° Southwest  Level Estimated
Sat 07:24:00 AM 39.0138 125.9772 205° Southwest  Level Estimated
Sat 07:25:00 AM 38.9276 125.9261 205° Southwest  Level Estimated
Sat 07:26:00 AM 38.8415 125.8752 205° Southwest  Level Estimated
Sat 07:27:00 AM 38.7552 125.8244 205° Southwest  Level Estimated
Sat 07:28:00 AM 38.6690 125.7738 205° Southwest  Level Estimated
Sat 07:29:00 AM 38.5828 125.7232 205° Southwest  Level Estimated
Sat 07:30:00 AM 38.4965 125.6728 205° Southwest  Level Estimated
Sat 07:31:00 AM 38.4102 125.6225 205° Southwest  Level Estimated
Sat 07:32:00 AM 38.3239 125.5723 205° Southwest  Level Estimated
Sat 07:33:00 AM 38.2376 125.5222 204° Southwest  Level Estimated
Sat 07:34:00 AM 38.1512 125.4723 204° Southwest  Level Estimated
Sat 07:35:00 AM 38.0648 125.4224 204° Southwest  Level Estimated
Sat 07:36:00 AM 37.9784 125.3727 204° Southwest  Level Estimated
Sat 07:37:00 AM 37.8920 125.3231 204° Southwest  Level Estimated
Sat 07:38:00 AM 37.8056 125.2736 204° Southwest  Level Estimated
Sat 07:39:00 AM 37.7191 125.2243 204° Southwest  Level Estimated
Sat 07:40:00 AM 37.6326 125.1750 204° Southwest  Level Estimated
Sat 07:41:00 AM 37.5461 125.1259 204° Southwest  Level Estimated
Sat 07:42:00 AM 37.4596 125.0769 204° Southwest  Level Estimated
Sat 07:43:00 AM 37.3731 125.0279 204° Southwest  Level Estimated
Sat 07:44:00 AM 37.2865 124.9791 204° Southwest  Level Estimated
Sat 07:45:00 AM 37.1999 124.9305 204° Southwest  Level Estimated
Sat 07:46:00 AM 37.1133 124.8819 204° Southwest  Level Estimated
Sat 07:47:00 AM 37.0267 124.8334 204° Southwest  Level Estimated
Sat 07:48:00 AM 36.9401 124.7851 204° Southwest  Level Estimated
Sat 07:49:00 AM 36.8534 124.7368 204° Southwest  Level Estimated
Sat 07:50:00 AM 36.7667 124.6887 204° Southwest  Level Estimated
Sat 07:51:00 AM 36.6800 124.6407 204° Southwest  Level Estimated
Sat 07:52:00 AM 36.5933 124.5928 204° Southwest  Level Estimated
Sat 07:53:00 AM 36.5066 124.5450 204° Southwest  Level Estimated
Sat 07:54:00 AM 36.4198 124.4973 204° Southwest  Level Estimated
Sat 07:55:00 AM 36.3330 124.4497 204° Southwest  Level Estimated
Sat 07:56:00 AM 36.2462 124.4022 204° Southwest  Level Estimated
Sat 07:57:00 AM 36.1594 124.3548 204° Southwest  Level Estimated
Sat 07:58:00 AM 36.0726 124.3075 204° Southwest  Level Estimated
Sat 07:59:00 AM 35.9857 124.2604 204° Southwest  Level Estimated
Sat 08:00:00 AM 35.8989 124.2133 204° Southwest  Level Estimated
Sat 08:01:00 AM 35.8120 124.1663 204° Southwest  Level Estimated
Sat 08:02:00 AM 35.7251 124.1195 204° Southwest  Level Estimated
Sat 08:03:00 AM 35.6381 124.0727 204° Southwest  Level Estimated
Sat 08:04:00 AM 35.5512 124.0260 204° Southwest  Level Estimated
Sat 08:05:00 AM 35.4642 123.9795 204° Southwest  Level Estimated
Sat 08:06:00 AM 35.3773 123.9330 204° Southwest  Level Estimated
Sat 08:07:00 AM 35.2903 123.8867 204° Southwest  Level Estimated
Sat 08:08:00 AM 35.2033 123.8404 203° Southwest  Level Estimated
Sat 08:09:00 AM 35.1162 123.7942 203° Southwest  Level Estimated
Sat 08:10:00 AM 35.0292 123.7482 203° Southwest  Level Estimated
Sat 08:11:00 AM 34.9421 123.7022 203° Southwest  Level Estimated
Sat 08:12:00 AM 34.8550 123.6563 203° Southwest  Level Estimated
Sat 08:13:00 AM 34.7679 123.6106 203° Southwest  Level Estimated
Sat 08:14:00 AM 34.6808 123.5649 203° Southwest  Level Estimated
Sat 08:15:00 AM 34.5937 123.5193 203° Southwest  Level Estimated
Sat 08:16:00 AM 34.5065 123.4738 203° Southwest  Level Estimated
Sat 08:17:00 AM 34.4193 123.4285 203° Southwest  Level Estimated
Sat 08:18:00 AM 34.3322 123.3832 203° Southwest  Level Estimated
Sat 08:19:00 AM 34.2450 123.3380 203° Southwest  Level Estimated
Sat 08:19:19 AM 32.0240 122.4630 203° Southwest 441 507 22,800  Level FlightAware
Sat 08:19:49 AM 31.9710 122.4880 158° South 447 514 22,200 -456 Descending FlightAware
Sat 08:20:00 AM 34.1577 123.2929 203° Southwest  Level Estimated
Sat 08:20:38 AM 31.8910 122.5260 158° South 447 514 22,200  Level FlightAware
Sat 08:21:26 AM 31.8130 122.5630 158° South 447 514 22,200  Level FlightAware
Sat 08:22:14 AM 31.7340 122.6000 158° South 447 514 22,200  Level FlightAware
Sat 08:22:38 AM 31.6950 122.6190 157° South 447 514 22,200  Level FlightAware
Sat 08:23:14 AM 31.6370 122.6470 158° South 447 514 22,200  Level FlightAware
Sat 08:23:38 AM 31.5980 122.6650 159° South 447 514 22,200  Level FlightAware
Sat 08:27:00 AM 31.4322 122.3448 239° Southwest  Level Estimated
Sat 08:28:00 AM 31.3828 122.2499 239° Southwest  Level Estimated
Sat 08:29:00 AM 31.3333 122.1552 239° Southwest  Level Estimated
Sat 08:30:00 AM 31.2838 122.0605 239° Southwest  Level Estimated
Sat 08:31:00 AM 31.2341 121.9659 238° Southwest  Level Estimated
Sat 08:32:00 AM 31.1845 121.8714 238° Southwest  Level Estimated
Sat 08:33:00 AM 31.1428 121.7924 238° Southwest  Level Estimated
Sat 08:34:00 AM 31.1428 121.7924 221° Southwest  Level Estimated
Sat 08:35:00 AM 31.1428 121.7924 221° Southwest  Level Estimated
Sat 08:36:00 AM 31.1428 121.7924 221° Southwest  Level Estimated
Sat 08:37:00 AM 31.1428 121.7924 221° Southwest  Level Estimated
Sat 08:38:00 AM 31.1428 121.7924 221° Southwest  Level Estimated
Sat 08:39:00 AM 31.1428 121.7924 221° Southwest  Level Estimated
Sat 08:40:00 AM 31.1428 121.7924 221° Southwest  Level Estimated
Sat 08:41:00 AM 31.1428 121.7924 221° Southwest  Level Estimated
Sat 08:42:00 AM 31.1428 121.7924 221° Southwest  Level Estimated
Sat 08:43:00 AM 31.1428 121.7924 221° Southwest  Level Estimated
Sat 08:44:00 AM 31.1428 121.7924 221° Southwest  Level Estimated
Sat 08:45:00 AM 31.1428 121.7924 221° Southwest  Level Estimated
Sat 08:46:00 AM 31.1428 121.7924 221° Southwest  Level Estimated
Sat 08:47:00 AM 31.1428 121.7924 221° Southwest  Level Estimated
Sat 08:48:00 AM 31.1428 121.7924 221° Southwest  Level Estimated
Sat 08:49:00 AM 31.1428 121.7924 221° Southwest  Level Estimated
Sat 08:50:00 AM 31.1428 121.7924 221° Southwest  Level Estimated
Sat 08:51:00 AM 31.1428 121.7924 221° Southwest  Level Estimated
Sat 08:52:00 AM 31.1428 121.7924 221° Southwest  Level Estimated
Sat 08:53:00 AM 31.1428 121.7924 221° Southwest  Level Estimated
Sat 08:54:00 AM 31.1428 121.7924 221° Southwest  Level Estimated
Sat 08:55:00 AM 31.1428 121.7924 221° Southwest  Level Estimated
Sat 08:56:00 AM 31.1428 121.7924 221° Southwest  Level Estimated
Sat 08:57:00 AM 31.1428 121.7924 221° Southwest  Level Estimated
Sat 08:58:00 AM 31.1428 121.7924 221° Southwest  Level Estimated
Sat 08:59:00 AM 31.1428 121.7924 221° Southwest  Level Estimated
Sat 09:00:00 AM 31.1428 121.7924 221° Southwest  Level Estimated
Sat 09:01:00 AM 31.1428 121.7924 221° Southwest  Level Estimated

Login

Don't have an account? Register now (free) for customized features, flight alerts, and more!